Portada
METAR-TAF:

METAR-TAF

Aeropuertos :

Fuerteventura, España

Aeropuerto de Fuerteventura

latitud: 28-27N, longitud: 013-52W, altitud: 22 m

Observación

El informe se hizo hace 40 minutos, a las 18:00 UTC
Viento 9 kt del norte
Temperatura 20°C
Humedad 88%
Presión 1020 hPa
Visibilidad 10 km o más
Escasas nubes a una altura de 2500 ft
Cielo nuboso a una altura de 3400 ft

METAR: GCFV 161800Z 36009KT 9999 FEW025 BKN034 20/18 Q1020

Hora: 18:40 (18:40 UTC)

Pronóstico

El informe se hizo hace 4 horas y 40 minutos, a las 14:00 UTC
Pronóstico válido del 16 a las 15 UTC al 17 a las 15 UTC
Viento 13 kt del norte-noroeste
Visibilidad 10 km o más
Cielo nuboso a una altura de 2500 ft
Evolucionando progresivamente
del 16 a las 18 UTC al 16 a las 20 UTC
Viento 13 kt del noreste
Probabilidad 40% :
Temporalmente
del 16 a las 15 UTC al 17 a las 13 UTC
lluvia

TAF: GCFV 161400Z 1615/1715 34013KT 9999 BKN025 TX20/1714Z TN14/1706Z BECMG 1618/1620 04013KT PROB40 TEMPO 1615/1713 RA

Observaciones y pronósticos meteorológicos de más de 4000 aeropuertos (mensajes METAR y TAF).

Los puntos amarillos y rojos representan las estaciones disponibles.

Ponga el ratón en el punto deseado para ver el nombre de la estación.

Haga clic para ver las observaciones y los pronósticos meteorológicos.

Para cambiar el mapa : haga clic en los botones verdes con una cruz de color negro para hacer un zoom, en el botón verde con un guión para alejar o en las flechas verdes para mapas adyacentes.


METAR-TAF: